sensor_id;sensor_type;location;lat;lon;timestamp;pressure;altitude;pressure_sealevel;temperature;humidity
73429;BME280;61643;49.564;17.412;2023-04-06T00:02:01;98538.66;;;-1.66;89.52
73429;BME280;61643;49.564;17.412;2023-04-06T00:04:27;98537.34;;;-1.62;88.97
73429;BME280;61643;49.564;17.412;2023-04-06T00:06:54;98537.13;;;-1.52;88.63
73429;BME280;61643;49.564;17.412;2023-04-06T00:09:20;98535.16;;;-1.58;88.86
73429;BME280;61643;49.564;17.412;2023-04-06T00:11:46;98530.72;;;-1.58;88.60
73429;BME280;61643;49.564;17.412;2023-04-06T00:14:12;98539.88;;;-1.84;90.35
73429;BME280;61643;49.564;17.412;2023-04-06T00:16:37;98535.38;;;-1.68;89.07
73429;BME280;61643;49.564;17.412;2023-04-06T00:19:03;98533.94;;;-1.70;89.51
73429;BME280;61643;49.564;17.412;2023-04-06T00:21:29;98529.75;;;-1.65;88.79
73429;BME280;61643;49.564;17.412;2023-04-06T00:23:56;98529.41;;;-1.62;88.37
73429;BME280;61643;49.564;17.412;2023-04-06T00:26:23;98519.22;;;-1.65;88.60
73429;BME280;61643;49.564;17.412;2023-04-06T00:28:49;98522.63;;;-1.56;88.27
73429;BME280;61643;49.564;17.412;2023-04-06T00:31:17;98524.66;;;-1.66;88.06
73429;BME280;61643;49.564;17.412;2023-04-06T00:33:43;98522.59;;;-1.87;89.15
73429;BME280;61643;49.564;17.412;2023-04-06T00:36:09;98522.63;;;-1.95;89.82
73429;BME280;61643;49.564;17.412;2023-04-06T00:38:35;98513.72;;;-1.94;88.71
73429;BME280;61643;49.564;17.412;2023-04-06T00:41:03;98516.34;;;-1.86;88.66
73429;BME280;61643;49.564;17.412;2023-04-06T00:43:30;98514.53;;;-1.85;89.00
73429;BME280;61643;49.564;17.412;2023-04-06T00:45:56;98512.53;;;-1.91;89.31
73429;BME280;61643;49.564;17.412;2023-04-06T00:48:23;98506.13;;;-1.89;89.40
73429;BME280;61643;49.564;17.412;2023-04-06T00:50:49;98500.53;;;-1.94;89.12
73429;BME280;61643;49.564;17.412;2023-04-06T00:53:15;98508.16;;;-1.99;89.09
73429;BME280;61643;49.564;17.412;2023-04-06T00:55:41;98513.09;;;-2.04;89.52
73429;BME280;61643;49.564;17.412;2023-04-06T00:58:07;98503.66;;;-1.99;89.32
73429;BME280;61643;49.564;17.412;2023-04-06T01:00:33;98501.59;;;-2.19;89.93
73429;BME280;61643;49.564;17.412;2023-04-06T01:03:00;98517.44;;;-2.27;90.98
73429;BME280;61643;49.564;17.412;2023-04-06T01:05:26;98504.72;;;-2.24;91.12
73429;BME280;61643;49.564;17.412;2023-04-06T01:07:52;98502.91;;;-2.15;90.00
73429;BME280;61643;49.564;17.412;2023-04-06T01:10:26;98501.38;;;-2.02;90.09
73429;BME280;61643;49.564;17.412;2023-04-06T01:12:52;98505.88;;;-2.10;89.21
73429;BME280;61643;49.564;17.412;2023-04-06T01:15:19;98503.53;;;-2.05;89.30
73429;BME280;61643;49.564;17.412;2023-04-06T01:17:46;98494.63;;;-2.04;89.12
73429;BME280;61643;49.564;17.412;2023-04-06T01:20:12;98501.59;;;-2.11;89.03
73429;BME280;61643;49.564;17.412;2023-04-06T01:22:38;98492.53;;;-2.17;89.43
73429;BME280;61643;49.564;17.412;2023-04-06T01:25:04;98498.94;;;-2.11;89.29
73429;BME280;61643;49.564;17.412;2023-04-06T01:27:30;98487.78;;;-2.29;90.29
73429;BME280;61643;49.564;17.412;2023-04-06T01:29:56;98494.97;;;-2.07;89.51
73429;BME280;61643;49.564;17.412;2023-04-06T01:32:22;98497.91;;;-2.02;89.60
73429;BME280;61643;49.564;17.412;2023-04-06T01:34:48;98497.41;;;-1.98;88.94
73429;BME280;61643;49.564;17.412;2023-04-06T01:37:14;98496.06;;;-1.85;88.77
73429;BME280;61643;49.564;17.412;2023-04-06T01:39:42;98498.00;;;-1.79;88.57
73429;BME280;61643;49.564;17.412;2023-04-06T01:42:08;98493.31;;;-1.69;87.68
73429;BME280;61643;49.564;17.412;2023-04-06T01:44:34;98500.91;;;-1.66;86.96
73429;BME280;61643;49.564;17.412;2023-04-06T01:47:00;98503.41;;;-1.73;87.63
73429;BME280;61643;49.564;17.412;2023-04-06T01:49:26;98497.72;;;-1.92;88.87
73429;BME280;61643;49.564;17.412;2023-04-06T01:51:52;98498.81;;;-2.18;89.41
73429;BME280;61643;49.564;17.412;2023-04-06T01:54:19;98493.97;;;-2.06;90.60
73429;BME280;61643;49.564;17.412;2023-04-06T01:56:45;98493.16;;;-2.07;90.12
73429;BME280;61643;49.564;17.412;2023-04-06T01:59:11;98485.91;;;-2.13;90.33
73429;BME280;61643;49.564;17.412;2023-04-06T02:01:37;98495.13;;;-2.09;90.09
73429;BME280;61643;49.564;17.412;2023-04-06T02:04:03;98498.31;;;-2.21;90.20
73429;BME280;61643;49.564;17.412;2023-04-06T02:06:29;98501.47;;;-2.34;91.21
73429;BME280;61643;49.564;17.412;2023-04-06T02:08:56;98503.63;;;-2.45;91.30
73429;BME280;61643;49.564;17.412;2023-04-06T02:11:22;98490.94;;;-2.34;91.19
73429;BME280;61643;49.564;17.412;2023-04-06T02:13:48;98497.72;;;-2.56;92.21
73429;BME280;61643;49.564;17.412;2023-04-06T02:16:14;98504.63;;;-2.46;92.05
73429;BME280;61643;49.564;17.412;2023-04-06T02:18:41;98502.66;;;-2.53;92.50
73429;BME280;61643;49.564;17.412;2023-04-06T02:21:07;98498.06;;;-2.51;91.34
73429;BME280;61643;49.564;17.412;2023-04-06T02:23:33;98502.34;;;-2.66;92.04
73429;BME280;61643;49.564;17.412;2023-04-06T02:25:59;98493.81;;;-2.68;92.27
73429;BME280;61643;49.564;17.412;2023-04-06T02:28:25;98487.84;;;-2.62;91.97
73429;BME280;61643;49.564;17.412;2023-04-06T02:30:51;98490.50;;;-2.78;92.01
73429;BME280;61643;49.564;17.412;2023-04-06T02:33:17;98492.63;;;-2.73;91.61
73429;BME280;61643;49.564;17.412;2023-04-06T02:35:44;98487.56;;;-2.91;92.58
73429;BME280;61643;49.564;17.412;2023-04-06T02:38:10;98477.00;;;-2.91;91.84
73429;BME280;61643;49.564;17.412;2023-04-06T02:40:36;98487.22;;;-2.88;91.22
73429;BME280;61643;49.564;17.412;2023-04-06T02:43:02;98485.41;;;-2.87;91.52
73429;BME280;61643;49.564;17.412;2023-04-06T02:45:28;98486.88;;;-2.85;91.22
73429;BME280;61643;49.564;17.412;2023-04-06T02:47:54;98487.56;;;-2.83;90.69
73429;BME280;61643;49.564;17.412;2023-04-06T02:50:20;98491.16;;;-2.92;91.51
73429;BME280;61643;49.564;17.412;2023-04-06T02:52:46;98490.84;;;-3.05;91.50
73429;BME280;61643;49.564;17.412;2023-04-06T02:55:12;98484.09;;;-2.91;90.96
73429;BME280;61643;49.564;17.412;2023-04-06T02:57:38;98487.69;;;-2.92;90.23
73429;BME280;61643;49.564;17.412;2023-04-06T03:00:04;98492.78;;;-3.07;91.12
73429;BME280;61643;49.564;17.412;2023-04-06T03:02:30;98486.25;;;-3.11;91.35
73429;BME280;61643;49.564;17.412;2023-04-06T03:04:56;98491.31;;;-3.34;91.76
73429;BME280;61643;49.564;17.412;2023-04-06T03:07:22;98494.94;;;-3.19;91.34
73429;BME280;61643;49.564;17.412;2023-04-06T03:09:48;98486.38;;;-3.21;91.13
73429;BME280;61643;49.564;17.412;2023-04-06T03:12:14;98484.91;;;-3.15;91.16
73429;BME280;61643;49.564;17.412;2023-04-06T03:14:40;98495.25;;;-3.22;91.54
73429;BME280;61643;49.564;17.412;2023-04-06T03:17:06;98488.34;;;-3.07;91.03
73429;BME280;61643;49.564;17.412;2023-04-06T03:19:32;98488.72;;;-2.93;90.92
73429;BME280;61643;49.564;17.412;2023-04-06T03:21:58;98498.72;;;-2.89;91.40
73429;BME280;61643;49.564;17.412;2023-04-06T03:24:24;98495.78;;;-2.86;90.70
73429;BME280;61643;49.564;17.412;2023-04-06T03:26:50;98496.09;;;-2.81;91.61
73429;BME280;61643;49.564;17.412;2023-04-06T03:29:16;98508.28;;;-2.80;91.63
73429;BME280;61643;49.564;17.412;2023-04-06T03:31:42;98501.38;;;-2.73;92.13
73429;BME280;61643;49.564;17.412;2023-04-06T03:34:08;98500.34;;;-2.64;91.48
73429;BME280;61643;49.564;17.412;2023-04-06T03:36:34;98504.97;;;-2.58;90.98
73429;BME280;61643;49.564;17.412;2023-04-06T03:39:00;98502.34;;;-2.66;91.65
73429;BME280;61643;49.564;17.412;2023-04-06T03:41:26;98501.69;;;-2.76;92.46
73429;BME280;61643;49.564;17.412;2023-04-06T03:43:52;98497.91;;;-2.73;92.78
73429;BME280;61643;49.564;17.412;2023-04-06T03:46:18;98498.41;;;-2.62;92.34
73429;BME280;61643;49.564;17.412;2023-04-06T03:48:47;98499.38;;;-2.55;92.01
73429;BME280;61643;49.564;17.412;2023-04-06T03:51:13;98503.47;;;-2.52;92.67
73429;BME280;61643;49.564;17.412;2023-04-06T03:53:39;98507.75;;;-2.43;92.53
73429;BME280;61643;49.564;17.412;2023-04-06T03:56:06;98501.97;;;-2.38;91.57
73429;BME280;61643;49.564;17.412;2023-04-06T03:58:32;98503.47;;;-2.36;91.86
73429;BME280;61643;49.564;17.412;2023-04-06T04:00:57;98509.03;;;-2.31;91.82
73429;BME280;61643;49.564;17.412;2023-04-06T04:03:23;98506.72;;;-2.26;91.83
73429;BME280;61643;49.564;17.412;2023-04-06T04:05:53;98513.97;;;-2.28;91.59
73429;BME280;61643;49.564;17.412;2023-04-06T04:08:19;98506.06;;;-2.28;91.18
73429;BME280;61643;49.564;17.412;2023-04-06T04:10:44;98512.00;;;-2.26;91.33
73429;BME280;61643;49.564;17.412;2023-04-06T04:13:10;98514.00;;;-2.36;92.20
73429;BME280;61643;49.564;17.412;2023-04-06T04:15:36;98513.16;;;-2.28;91.94
73429;BME280;61643;49.564;17.412;2023-04-06T04:18:02;98513.66;;;-2.25;91.76
73429;BME280;61643;49.564;17.412;2023-04-06T04:20:28;98510.34;;;-2.27;91.61
73429;BME280;61643;49.564;17.412;2023-04-06T04:22:54;98509.22;;;-2.40;92.01
73429;BME280;61643;49.564;17.412;2023-04-06T04:25:21;98516.16;;;-2.39;92.15
73429;BME280;61643;49.564;17.412;2023-04-06T04:27:46;98519.28;;;-2.36;92.26
73429;BME280;61643;49.564;17.412;2023-04-06T04:30:12;98511.53;;;-2.37;91.87
73429;BME280;61643;49.564;17.412;2023-04-06T04:32:38;98513.47;;;-2.31;92.39
73429;BME280;61643;49.564;17.412;2023-04-06T04:35:05;98508.19;;;-2.23;91.93
73429;BME280;61643;49.564;17.412;2023-04-06T04:37:31;98518.75;;;-2.23;92.47
73429;BME280;61643;49.564;17.412;2023-04-06T04:39:57;98513.97;;;-2.20;92.15
73429;BME280;61643;49.564;17.412;2023-04-06T04:42:23;98512.97;;;-2.11;91.66
73429;BME280;61643;49.564;17.412;2023-04-06T04:44:49;98518.38;;;-2.12;91.82
73429;BME280;61643;49.564;17.412;2023-04-06T04:47:15;98523.81;;;-2.06;91.31
73429;BME280;61643;49.564;17.412;2023-04-06T04:49:41;98520.31;;;-1.98;91.38
73429;BME280;61643;49.564;17.412;2023-04-06T04:52:07;98518.00;;;-1.93;91.56
73429;BME280;61643;49.564;17.412;2023-04-06T04:54:32;98515.03;;;-1.90;91.74
73429;BME280;61643;49.564;17.412;2023-04-06T04:56:58;98522.06;;;-1.74;91.75
73429;BME280;61643;49.564;17.412;2023-04-06T04:59:24;98516.03;;;-1.52;90.83
73429;BME280;61643;49.564;17.412;2023-04-06T05:01:50;98514.59;;;-1.32;90.37
73429;BME280;61643;49.564;17.412;2023-04-06T05:04:16;98523.41;;;-1.17;90.04
73429;BME280;61643;49.564;17.412;2023-04-06T05:06:42;98510.72;;;-1.21;90.29
73429;BME280;61643;49.564;17.412;2023-04-06T05:09:08;98518.00;;;-1.01;90.37
73429;BME280;61643;49.564;17.412;2023-04-06T05:11:34;98519.59;;;-0.91;90.34
73429;BME280;61643;49.564;17.412;2023-04-06T05:14:00;98524.84;;;-0.69;89.88
73429;BME280;61643;49.564;17.412;2023-04-06T05:16:26;98530.13;;;-0.69;89.97
73429;BME280;61643;49.564;17.412;2023-04-06T05:18:52;98519.13;;;-0.58;89.99
73429;BME280;61643;49.564;17.412;2023-04-06T05:21:18;98513.63;;;-0.48;89.55
73429;BME280;61643;49.564;17.412;2023-04-06T05:23:45;98521.22;;;-0.30;89.51
73429;BME280;61643;49.564;17.412;2023-04-06T05:26:10;98523.34;;;-0.11;88.80
73429;BME280;61643;49.564;17.412;2023-04-06T05:28:36;98515.41;;;0.04;88.65
73429;BME280;61643;49.564;17.412;2023-04-06T05:31:03;98515.22;;;0.20;88.40
73429;BME280;61643;49.564;17.412;2023-04-06T05:33:28;98505.72;;;0.25;88.36
73429;BME280;61643;49.564;17.412;2023-04-06T05:35:55;98512.09;;;0.31;88.30
73429;BME280;61643;49.564;17.412;2023-04-06T05:38:20;98506.13;;;0.43;87.25
73429;BME280;61643;49.564;17.412;2023-04-06T05:40:46;98508.13;;;0.56;86.58
73429;BME280;61643;49.564;17.412;2023-04-06T05:43:13;98512.19;;;0.73;85.65
73429;BME280;61643;49.564;17.412;2023-04-06T05:45:38;98511.81;;;0.76;85.88
73429;BME280;61643;49.564;17.412;2023-04-06T05:48:05;98511.25;;;0.81;85.79
73429;BME280;61643;49.564;17.412;2023-04-06T05:50:31;98520.66;;;0.83;86.98
73429;BME280;61643;49.564;17.412;2023-04-06T05:52:56;98516.00;;;0.85;86.55
73429;BME280;61643;49.564;17.412;2023-04-06T05:55:22;98512.22;;;0.94;85.15
73429;BME280;61643;49.564;17.412;2023-04-06T05:57:48;98513.69;;;0.97;84.55
73429;BME280;61643;49.564;17.412;2023-04-06T06:00:14;98509.84;;;0.99;83.98
73429;BME280;61643;49.564;17.412;2023-04-06T06:02:40;98504.16;;;1.03;85.97
73429;BME280;61643;49.564;17.412;2023-04-06T06:05:08;98501.16;;;1.12;84.57
73429;BME280;61643;49.564;17.412;2023-04-06T06:07:35;98505.63;;;1.26;83.43
73429;BME280;61643;49.564;17.412;2023-04-06T06:10:01;98503.00;;;1.33;82.17
73429;BME280;61643;49.564;17.412;2023-04-06T06:12:27;98501.63;;;1.37;85.75
73429;BME280;61643;49.564;17.412;2023-04-06T06:14:54;98504.72;;;1.40;82.65
73429;BME280;61643;49.564;17.412;2023-04-06T06:17:20;98507.06;;;1.57;81.73
73429;BME280;61643;49.564;17.412;2023-04-06T06:19:46;98508.84;;;1.77;80.37
73429;BME280;61643;49.564;17.412;2023-04-06T06:22:12;98512.84;;;1.88;80.17
73429;BME280;61643;49.564;17.412;2023-04-06T06:24:38;98505.13;;;1.99;78.69
73429;BME280;61643;49.564;17.412;2023-04-06T06:27:04;98501.50;;;2.07;78.44
73429;BME280;61643;49.564;17.412;2023-04-06T06:29:30;98502.47;;;1.99;79.21
73429;BME280;61643;49.564;17.412;2023-04-06T06:31:56;98504.69;;;1.96;79.00
73429;BME280;61643;49.564;17.412;2023-04-06T06:34:22;98499.63;;;2.01;78.52
73429;BME280;61643;49.564;17.412;2023-04-06T06:36:48;98498.84;;;2.07;79.71
73429;BME280;61643;49.564;17.412;2023-04-06T06:39:14;98504.16;;;2.07;77.67
73429;BME280;61643;49.564;17.412;2023-04-06T06:41:40;98497.06;;;2.21;78.48
73429;BME280;61643;49.564;17.412;2023-04-06T06:44:06;98495.06;;;2.23;78.99
73429;BME280;61643;49.564;17.412;2023-04-06T06:46:32;98495.91;;;2.30;77.08
73429;BME280;61643;49.564;17.412;2023-04-06T06:48:58;98497.19;;;2.40;78.09
73429;BME280;61643;49.564;17.412;2023-04-06T06:51:24;98499.88;;;2.54;77.68
73429;BME280;61643;49.564;17.412;2023-04-06T06:53:50;98501.34;;;2.56;76.36
73429;BME280;61643;49.564;17.412;2023-04-06T06:56:16;98495.81;;;2.58;76.19
73429;BME280;61643;49.564;17.412;2023-04-06T06:58:42;98503.19;;;2.56;74.72
73429;BME280;61643;49.564;17.412;2023-04-06T07:01:08;98498.88;;;2.61;76.42
73429;BME280;61643;49.564;17.412;2023-04-06T07:03:34;98494.41;;;2.68;76.58
73429;BME280;61643;49.564;17.412;2023-04-06T07:06:00;98494.41;;;2.62;74.90
73429;BME280;61643;49.564;17.412;2023-04-06T07:08:26;98488.06;;;2.56;75.83
73429;BME280;61643;49.564;17.412;2023-04-06T07:10:53;98501.63;;;2.74;75.37
73429;BME280;61643;49.564;17.412;2023-04-06T07:13:19;98495.91;;;2.90;76.26
73429;BME280;61643;49.564;17.412;2023-04-06T07:15:49;98495.13;;;3.03;73.51
73429;BME280;61643;49.564;17.412;2023-04-06T07:18:16;98497.16;;;3.08;73.19
73429;BME280;61643;49.564;17.412;2023-04-06T07:20:42;98495.56;;;3.20;74.05
73429;BME280;61643;49.564;17.412;2023-04-06T07:23:08;98497.41;;;3.19;73.12
73429;BME280;61643;49.564;17.412;2023-04-06T07:25:34;98498.44;;;3.18;73.84
73429;BME280;61643;49.564;17.412;2023-04-06T07:28:02;98501.47;;;3.15;71.14
73429;BME280;61643;49.564;17.412;2023-04-06T07:30:28;98494.31;;;3.09;71.73
73429;BME280;61643;49.564;17.412;2023-04-06T07:32:54;98489.00;;;3.16;71.62
73429;BME280;61643;49.564;17.412;2023-04-06T07:35:25;98499.03;;;3.27;71.31
73429;BME280;61643;49.564;17.412;2023-04-06T07:37:52;98503.34;;;3.21;70.61
73429;BME280;61643;49.564;17.412;2023-04-06T07:40:18;98498.22;;;3.20;68.51
73429;BME280;61643;49.564;17.412;2023-04-06T07:42:45;98495.34;;;3.15;68.96
73429;BME280;61643;49.564;17.412;2023-04-06T07:45:11;98493.13;;;3.18;69.65
73429;BME280;61643;49.564;17.412;2023-04-06T07:47:37;98488.63;;;3.25;68.08
73429;BME280;61643;49.564;17.412;2023-04-06T07:50:04;98486.16;;;3.24;66.02
73429;BME280;61643;49.564;17.412;2023-04-06T07:52:31;98489.22;;;3.27;65.63
73429;BME280;61643;49.564;17.412;2023-04-06T07:55:00;98480.84;;;3.17;64.81
73429;BME280;61643;49.564;17.412;2023-04-06T07:57:26;98494.38;;;3.29;65.92
73429;BME280;61643;49.564;17.412;2023-04-06T07:59:52;98483.13;;;3.40;65.07
73429;BME280;61643;49.564;17.412;2023-04-06T08:02:18;98482.25;;;3.33;63.08
73429;BME280;61643;49.564;17.412;2023-04-06T08:04:44;98478.78;;;3.26;61.96
73429;BME280;61643;49.564;17.412;2023-04-06T08:07:10;98485.16;;;3.25;61.80
73429;BME280;61643;49.564;17.412;2023-04-06T08:09:36;98478.78;;;3.26;60.64
73429;BME280;61643;49.564;17.412;2023-04-06T08:12:03;98473.91;;;3.36;59.37
73429;BME280;61643;49.564;17.412;2023-04-06T08:14:29;98491.28;;;3.38;58.29
73429;BME280;61643;49.564;17.412;2023-04-06T08:16:55;98485.13;;;3.44;58.33
73429;BME280;61643;49.564;17.412;2023-04-06T08:19:21;98478.16;;;3.70;58.72
73429;BME280;61643;49.564;17.412;2023-04-06T08:21:47;98476.34;;;3.51;56.99
73429;BME280;61643;49.564;17.412;2023-04-06T08:24:14;98476.34;;;3.51;57.18
73429;BME280;61643;49.564;17.412;2023-04-06T08:26:40;98472.44;;;3.73;58.22
73429;BME280;61643;49.564;17.412;2023-04-06T08:29:06;98477.94;;;3.97;58.22
73429;BME280;61643;49.564;17.412;2023-04-06T08:31:35;98474.84;;;4.07;57.21
73429;BME280;61643;49.564;17.412;2023-04-06T08:34:03;98473.41;;;4.11;57.08
73429;BME280;61643;49.564;17.412;2023-04-06T08:36:29;98473.34;;;4.24;55.77
73429;BME280;61643;49.564;17.412;2023-04-06T08:38:56;98464.31;;;4.32;56.30
73429;BME280;61643;49.564;17.412;2023-04-06T08:41:22;98469.66;;;4.25;52.85
73429;BME280;61643;49.564;17.412;2023-04-06T08:43:52;98471.72;;;4.17;54.41
73429;BME280;61643;49.564;17.412;2023-04-06T08:46:22;98471.31;;;4.20;54.16
73429;BME280;61643;49.564;17.412;2023-04-06T08:48:55;98471.41;;;3.93;54.66
73429;BME280;61643;49.564;17.412;2023-04-06T08:51:23;98474.28;;;3.85;55.85
73429;BME280;61643;49.564;17.412;2023-04-06T08:53:50;98472.00;;;3.89;54.89
73429;BME280;61643;49.564;17.412;2023-04-06T08:56:17;98461.31;;;4.02;56.52
73429;BME280;61643;49.564;17.412;2023-04-06T08:58:43;98467.84;;;4.13;54.83
73429;BME280;61643;49.564;17.412;2023-04-06T09:01:11;98468.00;;;4.24;57.00
73429;BME280;61643;49.564;17.412;2023-04-06T09:03:40;98476.47;;;4.15;55.20
73429;BME280;61643;49.564;17.412;2023-04-06T09:06:06;98482.63;;;4.09;55.27
73429;BME280;61643;49.564;17.412;2023-04-06T09:08:34;98477.91;;;4.11;56.26
73429;BME280;61643;49.564;17.412;2023-04-06T09:11:03;98474.19;;;4.18;55.91
73429;BME280;61643;49.564;17.412;2023-04-06T09:13:30;98475.84;;;4.19;55.23
73429;BME280;61643;49.564;17.412;2023-04-06T09:18:33;98480.06;;;4.40;56.04
73429;BME280;61643;49.564;17.412;2023-04-06T09:21:01;98470.88;;;4.29;55.16
73429;BME280;61643;49.564;17.412;2023-04-06T09:23:28;98473.09;;;4.39;55.24
73429;BME280;61643;49.564;17.412;2023-04-06T09:28:47;98462.91;;;4.74;57.58
73429;BME280;61643;49.564;17.412;2023-04-06T09:31:23;98462.19;;;4.85;55.68
73429;BME280;61643;49.564;17.412;2023-04-06T09:33:50;98460.84;;;4.76;57.21
73429;BME280;61643;49.564;17.412;2023-04-06T09:36:16;98461.41;;;4.78;56.57
73429;BME280;61643;49.564;17.412;2023-04-06T09:38:55;98464.94;;;4.72;56.50
73429;BME280;61643;49.564;17.412;2023-04-06T09:41:31;98470.34;;;4.59;55.60
73429;BME280;61643;49.564;17.412;2023-04-06T09:44:11;98470.16;;;4.54;55.91
73429;BME280;61643;49.564;17.412;2023-04-06T09:46:41;98472.44;;;4.50;56.63
73429;BME280;61643;49.564;17.412;2023-04-06T09:49:09;98466.69;;;4.53;56.18
73429;BME280;61643;49.564;17.412;2023-04-06T09:51:45;98457.34;;;4.75;58.41
73429;BME280;61643;49.564;17.412;2023-04-06T09:54:17;98470.19;;;4.85;56.63
73429;BME280;61643;49.564;17.412;2023-04-06T09:56:47;98459.91;;;4.88;56.69
73429;BME280;61643;49.564;17.412;2023-04-06T10:02:05;98451.72;;;4.90;56.01
73429;BME280;61643;49.564;17.412;2023-04-06T10:07:04;98452.88;;;5.01;54.75
73429;BME280;61643;49.564;17.412;2023-04-06T10:09:32;98454.72;;;5.00;54.77
73429;BME280;61643;49.564;17.412;2023-04-06T10:12:05;98459.59;;;5.10;54.14
73429;BME280;61643;49.564;17.412;2023-04-06T10:14:34;98451.41;;;5.05;54.52
73429;BME280;61643;49.564;17.412;2023-04-06T10:17:04;98455.78;;;4.99;54.67
73429;BME280;61643;49.564;17.412;2023-04-06T10:19:46;98461.53;;;4.96;54.45
73429;BME280;61643;49.564;17.412;2023-04-06T10:22:26;98458.31;;;4.87;53.34
73429;BME280;61643;49.564;17.412;2023-04-06T10:24:54;98452.84;;;4.76;54.76
73429;BME280;61643;49.564;17.412;2023-04-06T10:27:30;98450.91;;;4.89;55.70
73429;BME280;61643;49.564;17.412;2023-04-06T10:30:05;98449.81;;;4.97;55.60
73429;BME280;61643;49.564;17.412;2023-04-06T10:32:33;98448.50;;;5.13;53.53
73429;BME280;61643;49.564;17.412;2023-04-06T10:35:08;98445.72;;;5.26;53.31
73429;BME280;61643;49.564;17.412;2023-04-06T10:37:54;98439.13;;;5.28;52.44
73429;BME280;61643;49.564;17.412;2023-04-06T10:40:26;98434.78;;;5.09;51.76
73429;BME280;61643;49.564;17.412;2023-04-06T10:42:54;98433.63;;;4.99;51.83
73429;BME280;61643;49.564;17.412;2023-04-06T10:45:25;98424.03;;;4.91;51.99
73429;BME280;61643;49.564;17.412;2023-04-06T10:47:54;98421.84;;;4.75;51.72
73429;BME280;61643;49.564;17.412;2023-04-06T10:50:22;98420.88;;;5.01;53.03
73429;BME280;61643;49.564;17.412;2023-04-06T10:53:02;98411.09;;;5.19;52.92
73429;BME280;61643;49.564;17.412;2023-04-06T10:55:31;98423.03;;;5.41;52.66
73429;BME280;61643;49.564;17.412;2023-04-06T10:57:57;98420.22;;;5.55;54.49
73429;BME280;61643;49.564;17.412;2023-04-06T11:00:23;98414.34;;;5.71;53.44
73429;BME280;61643;49.564;17.412;2023-04-06T11:02:49;98413.44;;;5.77;52.54
73429;BME280;61643;49.564;17.412;2023-04-06T11:05:15;98408.63;;;5.67;51.49
73429;BME280;61643;49.564;17.412;2023-04-06T11:07:41;98418.19;;;5.75;52.25
73429;BME280;61643;49.564;17.412;2023-04-06T11:10:08;98410.31;;;5.80;51.95
73429;BME280;61643;49.564;17.412;2023-04-06T11:12:34;98412.34;;;5.84;53.30
73429;BME280;61643;49.564;17.412;2023-04-06T11:15:02;98410.50;;;5.85;53.18
73429;BME280;61643;49.564;17.412;2023-04-06T11:17:35;98401.13;;;5.76;51.57
73429;BME280;61643;49.564;17.412;2023-04-06T11:20:09;98405.25;;;5.72;51.62
73429;BME280;61643;49.564;17.412;2023-04-06T11:22:36;98403.22;;;5.74;51.56
73429;BME280;61643;49.564;17.412;2023-04-06T11:25:06;98406.09;;;5.72;50.63
73429;BME280;61643;49.564;17.412;2023-04-06T11:27:33;98408.31;;;5.75;49.92
73429;BME280;61643;49.564;17.412;2023-04-06T11:30:00;98403.50;;;5.66;50.13
73429;BME280;61643;49.564;17.412;2023-04-06T11:32:26;98390.19;;;5.41;50.25
73429;BME280;61643;49.564;17.412;2023-04-06T11:34:53;98392.56;;;5.49;51.24
73429;BME280;61643;49.564;17.412;2023-04-06T11:37:19;98395.16;;;5.56;52.13
73429;BME280;61643;49.564;17.412;2023-04-06T11:39:49;98388.66;;;5.70;51.30
73429;BME280;61643;49.564;17.412;2023-04-06T11:42:27;98383.28;;;5.94;51.52
73429;BME280;61643;49.564;17.412;2023-04-06T11:44:55;98383.94;;;5.90;49.66
73429;BME280;61643;49.564;17.412;2023-04-06T11:47:28;98374.00;;;5.97;52.38
73429;BME280;61643;49.564;17.412;2023-04-06T11:49:54;98383.06;;;6.14;51.19
73429;BME280;61643;49.564;17.412;2023-04-06T11:52:23;98385.09;;;6.30;50.69
73429;BME280;61643;49.564;17.412;2023-04-06T11:54:51;98377.50;;;6.46;52.38
73429;BME280;61643;49.564;17.412;2023-04-06T11:57:19;98370.06;;;6.48;50.28
73429;BME280;61643;49.564;17.412;2023-04-06T11:59:45;98362.66;;;6.50;50.56
73429;BME280;61643;49.564;17.412;2023-04-06T12:02:11;98367.59;;;6.64;51.40
73429;BME280;61643;49.564;17.412;2023-04-06T12:04:38;98363.22;;;6.52;47.58
73429;BME280;61643;49.564;17.412;2023-04-06T12:07:04;98365.22;;;6.08;48.00
73429;BME280;61643;49.564;17.412;2023-04-06T12:09:30;98360.78;;;6.20;49.65
73429;BME280;61643;49.564;17.412;2023-04-06T12:11:57;98359.53;;;6.05;49.08
73429;BME280;61643;49.564;17.412;2023-04-06T12:14:23;98362.88;;;6.18;50.46
73429;BME280;61643;49.564;17.412;2023-04-06T12:16:49;98353.13;;;6.24;50.06
73429;BME280;61643;49.564;17.412;2023-04-06T12:19:15;98359.13;;;6.19;50.22
73429;BME280;61643;49.564;17.412;2023-04-06T12:21:41;98353.53;;;6.09;47.82
73429;BME280;61643;49.564;17.412;2023-04-06T12:24:08;98359.88;;;5.72;47.20
73429;BME280;61643;49.564;17.412;2023-04-06T12:26:35;98346.47;;;5.78;50.27
73429;BME280;61643;49.564;17.412;2023-04-06T12:29:02;98353.31;;;5.92;49.96
73429;BME280;61643;49.564;17.412;2023-04-06T12:31:39;98344.63;;;5.97;49.61
73429;BME280;61643;49.564;17.412;2023-04-06T12:34:07;98339.25;;;6.15;49.01
73429;BME280;61643;49.564;17.412;2023-04-06T12:36:33;98337.97;;;6.36;49.93
73429;BME280;61643;49.564;17.412;2023-04-06T12:38:59;98333.69;;;6.47;48.69
73429;BME280;61643;49.564;17.412;2023-04-06T12:41:29;98340.03;;;6.64;47.22
73429;BME280;61643;49.564;17.412;2023-04-06T12:43:55;98338.91;;;6.83;48.43
73429;BME280;61643;49.564;17.412;2023-04-06T12:46:22;98330.00;;;7.01;48.17
73429;BME280;61643;49.564;17.412;2023-04-06T12:48:48;98329.06;;;7.07;48.49
73429;BME280;61643;49.564;17.412;2023-04-06T12:51:14;98322.56;;;7.14;45.93
73429;BME280;61643;49.564;17.412;2023-04-06T12:53:40;98313.13;;;7.23;46.98
73429;BME280;61643;49.564;17.412;2023-04-06T12:56:15;98305.69;;;7.25;46.50
73429;BME280;61643;49.564;17.412;2023-04-06T12:58:41;98315.22;;;7.21;46.58
73429;BME280;61643;49.564;17.412;2023-04-06T13:01:08;98315.81;;;7.23;46.96
73429;BME280;61643;49.564;17.412;2023-04-06T13:03:34;98311.16;;;7.30;48.03
73429;BME280;61643;49.564;17.412;2023-04-06T13:06:01;98309.28;;;7.31;47.61